createdAt,value
2017-12-03T04:30:14.850Z,32.63
2017-12-03T04:32:43.275Z,38.10
2017-12-03T04:35:10.852Z,41.85
2017-12-03T04:37:38.437Z,33.55
2017-12-03T04:40:06.057Z,36.42
2017-12-03T04:42:33.632Z,33.45
2017-12-03T04:45:02.721Z,34.85
2017-12-03T04:47:30.333Z,31.37
2017-12-03T04:49:57.922Z,30.90
2017-12-03T04:52:25.505Z,35.90
2017-12-03T04:54:53.126Z,31.67
2017-12-03T04:57:20.710Z,32.60
2017-12-03T04:59:48.294Z,31.70
2017-12-03T05:02:15.897Z,32.08
2017-12-03T05:04:43.477Z,35.92
2017-12-03T05:07:11.093Z,40.25
2017-12-03T05:09:39.446Z,32.60
2017-12-03T05:12:07.029Z,26.60
2017-12-03T05:14:35.432Z,32.88
2017-12-03T05:17:03.017Z,38.45
2017-12-03T05:19:30.601Z,29.67
2017-12-03T05:21:58.374Z,29.05
2017-12-03T05:24:26.732Z,28.05
2017-12-03T05:26:54.313Z,27.05
2017-12-03T05:29:22.705Z,26.83
2017-12-03T05:31:51.055Z,29.50
2017-12-03T05:34:18.633Z,32.10
2017-12-03T05:36:47.025Z,36.75
2017-12-03T05:39:14.611Z,29.70
2017-12-03T05:41:42.194Z,29.52
2017-12-03T05:44:09.851Z,26.95
2017-12-03T05:46:37.429Z,34.10
2017-12-03T05:49:05.013Z,28.45
2017-12-03T05:51:33.382Z,30.90
2017-12-03T05:54:01.734Z,26.33
2017-12-03T05:56:29.366Z,31.77
2017-12-03T05:58:56.950Z,25.67
2017-12-03T06:01:24.533Z,26.55
2017-12-03T06:03:52.917Z,31.58
2017-12-03T06:06:21.266Z,32.35
2017-12-03T06:08:48.846Z,24.95
2017-12-03T06:11:17.221Z,28.80
2017-12-03T06:13:45.570Z,28.55
2017-12-03T06:16:13.185Z,31.10
2017-12-03T06:18:40.867Z,25.85
2017-12-03T06:21:08.451Z,25.65
2017-12-03T06:23:36.074Z,32.10
2017-12-03T06:26:03.654Z,27.35
2017-12-03T06:28:31.239Z,26.08
2017-12-03T06:30:58.845Z,27.52
2017-12-03T06:33:26.426Z,30.50
2017-12-03T06:35:54.050Z,29.55
2017-12-03T06:38:21.634Z,28.87
2017-12-03T06:40:49.302Z,27.60
2017-12-03T06:43:16.914Z,27.27
2017-12-03T06:45:45.266Z,30.85
2017-12-03T06:48:12.850Z,25.98
2017-12-03T06:50:41.221Z,31.50
2017-12-03T06:53:09.587Z,26.62
2017-12-03T06:55:37.950Z,26.98
2017-12-03T06:58:05.574Z,29.12
2017-12-03T07:00:33.155Z,24.87
2017-12-03T07:03:00.738Z,26.05
2017-12-03T07:05:28.351Z,25.62
2017-12-03T07:07:55.933Z,30.67
2017-12-03T07:10:23.513Z,31.10
2017-12-03T07:12:51.142Z,31.00
2017-12-03T07:15:18.726Z,29.90
2017-12-03T07:17:46.309Z,26.25
2017-12-03T07:20:14.709Z,27.08
2017-12-03T07:22:42.294Z,32.58
2017-12-03T07:25:09.896Z,27.92
2017-12-03T07:27:38.269Z,26.67
2017-12-03T07:30:06.812Z,32.60
2017-12-03T07:32:34.431Z,27.95
2017-12-03T07:35:02.802Z,23.87
2017-12-03T07:37:31.227Z,24.20
2017-12-03T07:39:58.810Z,23.87
2017-12-03T07:42:27.777Z,27.77
2017-12-03T07:44:55.469Z,28.08
2017-12-03T07:47:23.125Z,26.48
2017-12-03T07:49:50.858Z,29.10
2017-12-03T07:52:18.455Z,25.33
2017-12-03T07:54:46.179Z,25.42
2017-12-03T07:57:13.774Z,31.77
2017-12-03T07:59:41.385Z,28.67
2017-12-03T08:02:08.982Z,33.15
2017-12-03T08:04:36.566Z,29.67
2017-12-03T08:07:04.942Z,25.10
2017-12-03T08:09:33.297Z,29.33
2017-12-03T08:12:02.389Z,27.67
2017-12-03T08:14:30.798Z,25.25
2017-12-03T08:16:59.147Z,26.40
2017-12-03T08:19:26.931Z,26.58
2017-12-03T08:21:55.281Z,25.77
2017-12-03T08:24:22.865Z,24.48
2017-12-03T08:26:51.274Z,25.45
2017-12-03T08:29:18.859Z,21.67
2017-12-03T08:31:46.446Z,19.23
2017-12-03T08:34:14.074Z,24.55
2017-12-03T08:36:41.672Z,22.58
2017-12-03T08:39:09.254Z,22.50
2017-12-03T08:41:36.874Z,22.42
2017-12-03T08:44:04.458Z,23.17
2017-12-03T08:46:32.806Z,20.37
2017-12-03T08:49:00.448Z,22.23
2017-12-03T08:51:28.029Z,20.67
2017-12-03T08:53:55.621Z,22.25
2017-12-03T08:56:24.030Z,22.15
2017-12-03T08:58:51.610Z,15.65
2017-12-03T09:01:19.193Z,21.20
2017-12-03T09:03:46.801Z,17.58
2017-12-03T09:06:14.405Z,17.75
2017-12-03T09:08:42.031Z,17.52
2017-12-03T09:11:09.617Z,19.95
2017-12-03T09:13:37.207Z,17.80
2017-12-03T09:16:05.593Z,16.30
2017-12-03T09:18:33.944Z,18.60
2017-12-03T09:21:01.534Z,20.30
2017-12-03T09:23:29.197Z,21.83
2017-12-03T09:25:56.798Z,16.80
2017-12-03T09:28:24.378Z,17.27
2017-12-03T09:30:53.329Z,18.70
2017-12-03T09:33:20.909Z,15.15
2017-12-03T09:35:49.279Z,18.87
2017-12-03T09:38:17.653Z,14.73
2017-12-03T09:40:49.194Z,13.10
2017-12-03T09:43:16.818Z,14.68
2017-12-03T09:45:47.960Z,16.10
2017-12-03T09:48:15.921Z,15.50
2017-12-03T09:50:44.286Z,19.83
2017-12-03T09:53:11.869Z,15.80
2017-12-03T09:55:39.498Z,21.90
2017-12-03T09:58:07.073Z,17.15
2017-12-03T10:00:35.421Z,18.87
2017-12-03T10:03:03.017Z,12.93
2017-12-03T10:05:31.359Z,15.38
2017-12-03T10:07:58.982Z,15.65
2017-12-03T10:10:26.566Z,19.10
2017-12-03T10:12:54.913Z,15.20
2017-12-03T10:15:22.546Z,14.20
2017-12-03T10:17:50.902Z,14.38
2017-12-03T10:20:18.485Z,20.45
2017-12-03T10:22:46.881Z,13.75
2017-12-03T10:25:14.465Z,15.93
2017-12-03T10:27:42.041Z,12.30
2017-12-03T10:30:09.657Z,15.10
2017-12-03T10:32:37.235Z,16.95
2017-12-03T10:35:04.818Z,16.35
2017-12-03T10:37:32.437Z,13.02
2017-12-03T10:40:00.018Z,14.55
2017-12-03T10:42:27.629Z,15.52
2017-12-03T10:44:56.032Z,15.48
2017-12-03T10:47:23.610Z,20.60
2017-12-03T10:49:51.186Z,19.58
2017-12-03T10:52:18.809Z,14.32
2017-12-03T10:54:46.388Z,16.25
2017-12-03T10:57:13.962Z,17.85
2017-12-03T10:59:41.593Z,21.02
2017-12-03T11:02:09.268Z,16.30
2017-12-03T11:04:36.854Z,14.25
2017-12-03T11:07:04.477Z,14.63
2017-12-03T11:09:32.149Z,18.27
2017-12-03T11:11:59.740Z,23.00
2017-12-03T11:14:28.213Z,17.45
2017-12-03T11:16:55.799Z,16.45
2017-12-03T11:19:24.158Z,19.60
2017-12-03T11:21:51.782Z,22.02
2017-12-03T11:24:19.360Z,18.45
2017-12-03T11:26:46.974Z,19.85
2017-12-03T11:29:14.598Z,22.30
2017-12-03T11:31:42.185Z,21.20
2017-12-03T11:34:09.768Z,23.17
2017-12-03T11:36:37.406Z,22.95
2017-12-03T11:39:04.990Z,21.20
2017-12-03T11:41:32.574Z,22.45
2017-12-03T11:44:00.813Z,20.05
2017-12-03T11:46:29.125Z,19.98
2017-12-03T11:48:58.072Z,25.25
2017-12-03T11:51:25.713Z,21.67
2017-12-03T11:53:54.061Z,24.87
2017-12-03T11:56:22.407Z,28.10
2017-12-03T11:58:50.010Z,26.17
2017-12-03T12:01:18.358Z,23.70
2017-12-03T12:03:45.994Z,24.25
2017-12-03T12:06:13.573Z,23.50
2017-12-03T12:08:41.157Z,26.42
2017-12-03T12:11:08.766Z,24.33
2017-12-03T12:13:36.351Z,27.23
2017-12-03T12:16:03.925Z,28.65
2017-12-03T12:18:31.533Z,29.20
2017-12-03T12:20:59.118Z,29.00
2017-12-03T12:23:26.748Z,27.00
2017-12-03T12:25:54.336Z,24.52
2017-12-03T12:28:21.918Z,26.65
2017-12-03T12:30:49.553Z,29.17
2017-12-03T12:33:17.133Z,35.00
2017-12-03T12:35:45.489Z,25.50
2017-12-03T12:38:13.093Z,24.65
2017-12-03T12:40:41.438Z,27.00
2017-12-03T12:43:09.082Z,27.80
2017-12-03T12:45:36.714Z,25.52
2017-12-03T12:48:04.322Z,26.60
2017-12-03T12:50:31.914Z,28.67
2017-12-03T12:53:01.054Z,24.73
2017-12-03T12:55:28.661Z,22.05
2017-12-03T12:57:56.278Z,25.75
2017-12-03T13:00:23.902Z,24.77
2017-12-03T13:02:51.522Z,25.70
2017-12-03T13:05:19.106Z,25.90
2017-12-03T13:07:47.578Z,27.13
2017-12-03T13:10:15.929Z,26.85
2017-12-03T13:12:43.522Z,27.50
2017-12-03T13:15:11.956Z,25.73
2017-12-03T13:17:39.541Z,27.73
2017-12-03T13:20:07.122Z,24.50
2017-12-03T13:22:35.514Z,26.58
2017-12-03T13:25:03.101Z,26.77
2017-12-03T13:27:30.693Z,27.17
2017-12-03T13:29:58.369Z,29.05
2017-12-03T13:32:26.718Z,26.73
2017-12-03T13:34:54.302Z,27.87
2017-12-03T13:37:22.674Z,27.40
2017-12-03T13:39:51.024Z,28.65
2017-12-03T13:42:18.660Z,28.50
2017-12-03T13:44:46.242Z,32.85
2017-12-03T13:47:13.834Z,29.27
2017-12-03T13:49:42.676Z,28.35
2017-12-03T13:52:10.335Z,31.62
2017-12-03T13:54:37.941Z,32.80
2017-12-03T13:57:06.328Z,30.25
2017-12-03T13:59:34.677Z,32.97
2017-12-03T14:02:02.257Z,26.98
2017-12-03T14:04:30.634Z,41.55
2017-12-03T14:07:01.562Z,33.30
2017-12-03T14:09:31.254Z,32.10
2017-12-03T14:11:58.841Z,24.60
2017-12-03T14:14:28.397Z,33.22
2017-12-03T14:16:56.155Z,33.88
2017-12-03T14:19:23.738Z,31.33
2017-12-03T14:21:52.317Z,30.77
2017-12-03T14:24:19.942Z,27.70
2017-12-03T14:26:48.328Z,28.23
2017-12-03T14:29:15.910Z,29.48
2017-12-03T14:31:43.865Z,29.55
2017-12-03T14:34:16.205Z,29.77
2017-12-03T14:36:43.838Z,29.92
2017-12-03T14:39:12.225Z,25.75
2017-12-03T14:41:40.577Z,28.40
2017-12-03T14:44:08.183Z,28.17
2017-12-03T14:46:39.359Z,25.48
2017-12-03T14:49:07.007Z,27.15
2017-12-03T14:51:34.590Z,25.55
2017-12-03T14:54:03.017Z,27.85
2017-12-03T14:56:30.601Z,27.30
2017-12-03T14:58:58.183Z,25.30
2017-12-03T15:01:25.809Z,28.70
2017-12-03T15:03:53.390Z,28.40
2017-12-03T15:06:20.977Z,29.75
2017-12-03T15:08:48.610Z,25.37
2017-12-03T15:11:16.189Z,26.08
2017-12-03T15:13:43.781Z,31.67
2017-12-03T15:16:11.410Z,28.70
2017-12-03T15:18:38.997Z,32.70
2017-12-03T15:21:07.549Z,30.23
2017-12-03T15:23:35.999Z,31.50
2017-12-03T15:26:03.585Z,29.87
2017-12-03T15:28:31.202Z,41.95
2017-12-03T15:30:58.796Z,32.05
2017-12-03T15:33:26.377Z,36.20
2017-12-03T15:35:54.765Z,30.17
2017-12-03T15:38:23.117Z,38.30
2017-12-03T15:40:50.702Z,47.72
2017-12-03T15:43:19.246Z,38.53
2017-12-03T15:45:46.838Z,40.35
2017-12-03T15:48:15.190Z,43.15
2017-12-03T15:50:42.827Z,39.25
2017-12-03T15:53:10.422Z,47.45
2017-12-03T15:55:38.788Z,42.20
2017-12-03T15:58:06.413Z,43.38
2017-12-03T16:00:34.005Z,42.67
2017-12-03T16:03:01.594Z,49.70
2017-12-03T16:05:29.985Z,38.40
2017-12-03T16:07:57.631Z,43.42
2017-12-03T16:10:26.046Z,43.03
2017-12-03T16:12:53.657Z,46.03
2017-12-03T16:15:22.085Z,46.90
2017-12-03T16:17:49.713Z,45.50
2017-12-03T16:20:17.303Z,50.45
2017-12-03T16:22:44.893Z,41.83
2017-12-03T16:25:12.506Z,40.88
2017-12-03T16:27:40.090Z,36.38
2017-12-03T16:30:07.718Z,46.78
2017-12-03T16:32:35.305Z,44.80
2017-12-03T16:35:02.959Z,35.28
2017-12-03T16:37:30.586Z,45.83
2017-12-03T16:39:58.174Z,42.22
2017-12-03T16:42:25.768Z,49.17
2017-12-03T16:44:53.506Z,46.35
2017-12-03T16:47:21.095Z,44.50
2017-12-03T16:49:48.721Z,43.35
2017-12-03T16:52:16.362Z,44.88
2017-12-03T16:54:44.038Z,42.90
2017-12-03T16:57:11.621Z,47.13
2017-12-03T16:59:40.027Z,37.03
2017-12-03T17:02:08.514Z,44.42
2017-12-03T17:04:36.868Z,48.35
2017-12-03T17:07:04.596Z,38.83
2017-12-03T17:09:32.186Z,39.90
2017-12-03T17:12:00.538Z,37.08
2017-12-03T17:14:28.186Z,41.28
2017-12-03T17:16:55.777Z,36.00
2017-12-03T17:19:23.370Z,39.95
2017-12-03T17:21:51.771Z,38.42
2017-12-03T17:24:19.369Z,40.33
2017-12-03T17:26:46.962Z,39.92
2017-12-03T17:29:15.339Z,36.03
2017-12-03T17:31:43.710Z,37.58
2017-12-03T17:34:12.061Z,43.85
2017-12-03T17:36:39.690Z,41.95
2017-12-03T17:39:07.290Z,38.05
2017-12-03T17:41:35.681Z,40.63
2017-12-03T17:44:04.025Z,39.95
2017-12-03T17:46:31.605Z,36.13
2017-12-03T17:48:59.219Z,37.30
2017-12-03T17:51:26.806Z,38.67
2017-12-03T17:53:54.438Z,36.45
2017-12-03T17:56:22.025Z,37.58
2017-12-03T17:58:49.669Z,34.00
2017-12-03T18:01:17.324Z,40.28
2017-12-03T18:03:44.906Z,42.47
2017-12-03T18:06:12.489Z,33.40
2017-12-03T18:08:40.973Z,38.53
2017-12-03T18:11:09.398Z,44.15
2017-12-03T18:13:36.982Z,35.92
2017-12-03T18:16:04.605Z,45.30
2017-12-03T18:18:32.186Z,39.40
2017-12-03T18:20:59.773Z,40.42
2017-12-03T18:23:28.158Z,45.70
2017-12-03T18:25:56.510Z,37.55
2017-12-03T18:28:24.186Z,36.85
2017-12-03T18:30:51.806Z,41.80
2017-12-03T18:33:19.389Z,46.08
2017-12-03T18:35:46.973Z,46.20
2017-12-03T18:38:15.361Z,41.55
2017-12-03T18:40:43.710Z,44.22
2017-12-03T18:43:12.057Z,54.47
2017-12-03T18:45:39.686Z,43.10
2017-12-03T18:48:07.278Z,45.47
2017-12-03T18:50:34.862Z,44.15
2017-12-03T18:53:02.474Z,49.97
2017-12-03T18:55:30.062Z,44.88
2017-12-03T18:57:57.646Z,48.05
2017-12-03T19:00:27.165Z,45.83
2017-12-03T19:02:55.517Z,46.72
2017-12-03T19:05:23.098Z,56.30
2017-12-03T19:07:51.520Z,47.28
2017-12-03T19:10:19.101Z,47.20
2017-12-03T19:12:46.681Z,59.15
2017-12-03T19:15:14.321Z,55.72
2017-12-03T19:17:41.926Z,52.45
2017-12-03T19:20:10.274Z,54.10
2017-12-03T19:22:37.901Z,54.28
2017-12-03T19:25:05.495Z,49.00
2017-12-03T19:27:33.845Z,48.35
2017-12-03T19:30:01.485Z,57.67
2017-12-03T19:32:29.082Z,46.90
2017-12-03T19:34:56.667Z,49.75
2017-12-03T19:37:25.041Z,45.97
2017-12-03T19:39:53.392Z,50.97
2017-12-03T19:42:20.973Z,54.42
2017-12-03T19:44:49.369Z,51.35
2017-12-03T19:47:16.954Z,49.78
2017-12-03T19:49:44.538Z,48.55
2017-12-03T19:52:12.170Z,40.08
2017-12-03T19:54:39.749Z,48.15
2017-12-03T19:57:07.507Z,49.22
2017-12-03T19:59:35.132Z,47.53
2017-12-03T20:02:02.718Z,49.83
2017-12-03T20:04:30.310Z,42.30
2017-12-03T20:06:58.697Z,53.90
2017-12-03T20:09:26.284Z,57.47
2017-12-03T20:11:53.860Z,54.60
2017-12-03T20:14:21.464Z,49.83
2017-12-03T20:16:50.557Z,48.92
2017-12-03T20:19:18.213Z,46.72
2017-12-03T20:21:45.859Z,44.58
2017-12-03T20:24:13.446Z,56.25
2017-12-03T20:26:41.062Z,56.75
2017-12-03T20:29:08.641Z,49.67
2017-12-03T20:31:36.222Z,47.85
2017-12-03T20:34:03.857Z,50.25
2017-12-03T20:36:31.441Z,55.15
2017-12-03T20:39:00.533Z,52.85
2017-12-03T20:41:28.166Z,51.22
2017-12-03T20:43:55.754Z,56.40
2017-12-03T20:46:23.333Z,59.03
2017-12-03T20:48:51.740Z,55.58
2017-12-03T20:51:19.329Z,54.85
2017-12-03T20:53:46.917Z,55.60
2017-12-03T20:56:15.290Z,55.72
2017-12-03T20:58:43.641Z,62.97
2017-12-03T21:01:11.221Z,51.33
2017-12-03T21:03:38.833Z,54.58
2017-12-03T21:06:06.416Z,52.33
2017-12-03T21:08:34.049Z,52.25
2017-12-03T21:11:01.720Z,65.15
2017-12-03T21:13:29.305Z,50.50
2017-12-03T21:15:58.430Z,52.03
2017-12-03T21:18:26.873Z,56.85
2017-12-03T21:20:54.453Z,48.20
2017-12-03T21:23:22.098Z,56.90
2017-12-03T21:25:51.273Z,51.10
2017-12-03T21:28:18.861Z,52.22
2017-12-03T21:30:47.242Z,56.80
2017-12-03T21:33:14.822Z,51.33
2017-12-03T21:35:43.169Z,47.10
2017-12-03T21:38:11.562Z,55.05
2017-12-03T21:40:39.909Z,55.10
2017-12-03T21:43:07.495Z,44.97
2017-12-03T21:45:35.129Z,55.50
2017-12-03T21:48:02.710Z,50.00
2017-12-03T21:50:30.298Z,47.30
2017-12-03T21:52:57.937Z,47.05
2017-12-03T21:55:26.286Z,42.25
2017-12-03T21:57:53.866Z,49.60
2017-12-03T22:00:21.494Z,50.00
2017-12-03T22:02:49.088Z,47.88
2017-12-03T22:05:17.437Z,43.67
2017-12-03T22:07:45.066Z,47.05
2017-12-03T22:10:12.644Z,45.08
2017-12-03T22:12:40.225Z,44.33
2017-12-03T22:15:07.834Z,46.10
2017-12-03T22:17:35.417Z,44.25
2017-12-03T22:20:02.998Z,45.83
2017-12-03T22:22:30.621Z,44.08
2017-12-03T22:24:58.206Z,45.80
2017-12-03T22:27:25.785Z,49.05
2017-12-03T22:29:53.407Z,43.25
2017-12-03T22:32:21.068Z,44.53
2017-12-03T22:34:48.650Z,50.97
2017-12-03T22:37:16.257Z,44.55
2017-12-03T22:39:43.838Z,50.38
2017-12-03T22:42:11.454Z,46.00
2017-12-03T22:44:39.837Z,45.05
2017-12-03T22:47:08.186Z,48.72
2017-12-03T22:49:35.770Z,43.97
2017-12-03T22:52:04.170Z,44.33
2017-12-03T22:54:31.749Z,40.35
2017-12-03T22:56:59.338Z,45.17
2017-12-03T22:59:26.947Z,44.83
2017-12-03T23:01:54.529Z,53.08
2017-12-03T23:04:29.917Z,44.15
2017-12-03T23:06:57.497Z,52.47
2017-12-03T23:09:25.076Z,53.42
2017-12-03T23:11:52.686Z,44.33
2017-12-03T23:14:20.270Z,41.33
2017-12-03T23:16:47.901Z,49.00
2017-12-03T23:19:15.483Z,47.67
2017-12-03T23:21:43.834Z,46.33
2017-12-03T23:24:11.454Z,46.85
2017-12-03T23:26:39.037Z,43.42
2017-12-03T23:29:06.617Z,39.80
